createdAt,value
2022-11-18T00:01:08.373Z,99881.38
2022-11-18T00:04:10.993Z,99882.09
2022-11-18T00:07:13.677Z,99879.75
2022-11-18T00:10:16.756Z,99880.50
2022-11-18T00:13:37.527Z,99886.31
2022-11-18T00:16:41.555Z,99885.41
2022-11-18T00:19:44.163Z,99879.34
2022-11-18T00:22:47.410Z,99878.97
2022-11-18T00:25:50.073Z,99888.78
2022-11-18T00:28:52.714Z,99881.03
2022-11-18T00:31:56.792Z,99887.97
2022-11-18T00:34:59.434Z,99896.34
2022-11-18T00:38:02.066Z,99895.69
2022-11-18T00:41:06.579Z,99898.78
2022-11-18T00:44:09.646Z,99897.34
2022-11-18T00:47:13.758Z,99905.69
2022-11-18T00:50:16.802Z,99909.13
2022-11-18T00:53:21.295Z,99902.78
2022-11-18T00:56:23.954Z,99902.69
2022-11-18T00:59:26.885Z,99908.31
2022-11-18T01:02:30.855Z,99913.34
2022-11-18T01:05:33.559Z,99913.97
2022-11-18T01:08:36.733Z,99924.97
2022-11-18T01:11:53.268Z,99929.72
2022-11-18T01:14:55.929Z,99926.22
2022-11-18T01:17:59.919Z,99925.44
2022-11-18T01:21:03.916Z,99931.19
2022-11-18T01:24:07.414Z,99930.59
2022-11-18T01:27:10.053Z,99927.63
2022-11-18T01:30:13.846Z,99931.69
2022-11-18T01:33:17.806Z,99930.00
2022-11-18T01:36:22.166Z,99931.59
2022-11-18T01:39:24.803Z,99929.72
2022-11-18T01:42:27.432Z,99927.22
2022-11-18T01:45:34.356Z,99939.56
2022-11-18T01:48:39.173Z,99935.47
2022-11-18T01:51:47.929Z,99941.22
2022-11-18T01:54:56.749Z,99941.00
2022-11-18T01:58:11.882Z,99947.69
2022-11-18T02:01:15.132Z,99951.09
2022-11-18T02:04:19.264Z,99963.16
2022-11-18T02:07:23.420Z,99967.03
2022-11-18T02:10:26.135Z,99962.81
2022-11-18T02:13:29.004Z,99962.13
2022-11-18T02:16:44.010Z,99954.19
2022-11-18T02:20:13.663Z,99965.50
2022-11-18T02:23:47.163Z,99957.06
2022-11-18T02:27:31.962Z,99957.38
2022-11-18T02:30:44.256Z,99966.38
2022-11-18T02:33:55.683Z,99961.09
2022-11-18T02:37:04.945Z,99968.09
2022-11-18T02:40:14.661Z,99961.16
2022-11-18T02:43:22.619Z,99968.19
2022-11-18T02:46:30.926Z,99968.03
2022-11-18T02:49:38.942Z,99965.84
2022-11-18T02:52:43.936Z,99969.31
2022-11-18T02:55:47.828Z,99982.47
2022-11-18T02:58:50.533Z,99989.97
2022-11-18T03:01:55.066Z,99980.59
2022-11-18T03:04:59.607Z,99984.13
2022-11-18T03:08:08.313Z,99991.38
2022-11-18T03:11:17.796Z,99988.94
2022-11-18T03:14:26.122Z,99990.34
2022-11-18T03:17:40.445Z,99991.47
2022-11-18T03:20:48.834Z,99994.91
2022-11-18T03:23:58.208Z,99999.69
2022-11-18T03:27:07.835Z,99999.75
2022-11-18T03:30:16.711Z,100008.09
2022-11-18T03:33:25.949Z,100006.66
2022-11-18T03:36:33.779Z,100008.63
2022-11-18T03:39:40.880Z,100013.31
2022-11-18T03:42:47.364Z,100018.81
2022-11-18T03:45:53.544Z,100014.88
2022-11-18T03:48:59.969Z,100020.63
2022-11-18T03:52:11.917Z,100020.09
2022-11-18T03:55:17.954Z,100014.03
2022-11-18T03:58:26.454Z,100017.25
2022-11-18T04:01:36.856Z,100020.03
2022-11-18T04:04:42.132Z,100022.69
2022-11-18T04:07:53.502Z,100026.22
2022-11-18T04:11:03.057Z,100043.22
2022-11-18T04:14:08.377Z,100040.84
2022-11-18T04:17:13.171Z,100044.38
2022-11-18T04:20:20.576Z,100042.66
2022-11-18T04:23:23.417Z,100057.09
2022-11-18T04:26:26.028Z,100056.66
2022-11-18T04:29:28.715Z,100051.56
2022-11-18T04:32:31.313Z,100054.00
2022-11-18T04:35:35.298Z,100044.22
2022-11-18T04:38:37.946Z,100061.78
2022-11-18T04:41:58.628Z,100063.63
2022-11-18T04:45:01.355Z,100060.25
2022-11-18T04:48:04.118Z,100064.69
2022-11-18T04:51:08.246Z,100061.06
2022-11-18T04:54:11.900Z,100071.25
2022-11-18T04:57:15.001Z,100072.50
2022-11-18T05:00:18.605Z,100070.78
2022-11-18T05:03:21.256Z,100079.88
2022-11-18T05:06:25.297Z,100081.44
2022-11-18T05:09:31.806Z,100084.84
2022-11-18T05:12:49.105Z,100090.47
2022-11-18T05:15:51.716Z,100093.38
2022-11-18T05:18:54.349Z,100105.06
2022-11-18T05:21:58.590Z,100104.19
2022-11-18T05:25:01.214Z,100100.84
2022-11-18T05:28:03.938Z,100107.03
2022-11-18T05:31:08.243Z,100116.19
2022-11-18T05:34:10.895Z,100119.09
2022-11-18T05:37:15.033Z,100116.59
2022-11-18T05:40:18.432Z,100122.69
2022-11-18T05:43:20.100Z,100127.47
2022-11-18T05:46:22.689Z,100130.94
2022-11-18T05:49:25.543Z,100135.44
2022-11-18T05:52:29.483Z,100151.59
2022-11-18T05:55:39.516Z,100144.66
2022-11-18T05:58:42.153Z,100151.66
2022-11-18T06:01:47.678Z,100153.41
2022-11-18T06:04:54.246Z,100159.25
2022-11-18T06:07:59.249Z,100157.53
2022-11-18T06:11:02.232Z,100166.72
2022-11-18T06:14:09.125Z,100164.53
2022-11-18T06:17:16.332Z,100167.22
2022-11-18T06:20:20.513Z,100173.59
2022-11-18T06:23:24.821Z,100175.63
2022-11-18T06:26:28.378Z,100187.91
2022-11-18T06:29:31.960Z,100186.19
2022-11-18T06:32:34.602Z,100182.69
2022-11-18T06:35:37.443Z,100201.63
2022-11-18T06:38:41.404Z,100197.19
2022-11-18T06:41:44.064Z,100201.34
2022-11-18T06:44:46.848Z,100206.84
2022-11-18T06:47:49.543Z,100213.47
2022-11-18T06:50:52.136Z,100211.63
2022-11-18T06:53:56.368Z,100216.53
2022-11-18T06:56:59.037Z,100218.88
2022-11-18T07:00:02.520Z,100214.53
2022-11-18T07:03:05.462Z,100225.19
2022-11-18T07:06:08.695Z,100237.84
2022-11-18T07:09:12.764Z,100242.06
2022-11-18T07:12:15.384Z,100249.69
2022-11-18T07:15:18.181Z,100253.13
2022-11-18T07:18:20.793Z,100251.69
2022-11-18T07:21:24.973Z,100248.09
2022-11-18T07:24:28.979Z,100249.91
2022-11-18T07:27:31.617Z,100259.78
2022-11-18T07:30:34.236Z,100266.28
2022-11-18T07:33:37.488Z,100273.50
2022-11-18T07:36:40.107Z,100264.66
2022-11-18T07:39:44.115Z,100283.09
2022-11-18T07:42:46.722Z,100277.75
2022-11-18T07:45:49.309Z,100281.13
2022-11-18T07:48:55.284Z,100287.34
2022-11-18T07:51:57.948Z,100288.00
2022-11-18T07:55:01.916Z,100288.38
2022-11-18T07:58:04.544Z,100302.19
2022-11-18T08:01:11.503Z,100305.63
2022-11-18T08:04:15.204Z,100306.25
2022-11-18T08:07:17.990Z,100304.81
2022-11-18T08:10:22.004Z,100313.50
2022-11-18T08:13:24.755Z,100323.38
2022-11-18T08:16:27.998Z,100325.94
2022-11-18T08:19:30.618Z,100324.81
2022-11-18T08:22:33.337Z,100331.72
2022-11-18T08:25:37.302Z,100343.84
2022-11-18T08:28:40.204Z,100345.94
2022-11-18T08:31:42.877Z,100334.38
2022-11-18T08:34:45.488Z,100338.13
2022-11-18T08:37:48.091Z,100342.47
2022-11-18T08:40:52.055Z,100342.97
2022-11-18T08:43:54.662Z,100351.00
2022-11-18T08:46:57.298Z,100358.56
2022-11-18T08:49:59.987Z,100360.09
2022-11-18T08:53:02.665Z,100352.81
2022-11-18T08:56:07.260Z,100357.81
2022-11-18T08:59:10.238Z,100370.69
2022-11-18T09:02:14.953Z,100362.75
2022-11-18T09:05:17.657Z,100367.19
2022-11-18T09:08:21.836Z,100371.31
2022-11-18T09:11:27.259Z,100379.41
2022-11-18T09:15:12.274Z,100377.44
2022-11-18T09:17:52.745Z,100383.19
2022-11-18T09:20:56.491Z,100399.34
2022-11-18T09:23:59.147Z,100399.63
2022-11-18T09:27:05.436Z,100399.59
2022-11-18T09:30:09.167Z,100406.13
2022-11-18T09:33:14.395Z,100408.00
2022-11-18T09:36:22.328Z,100412.75
2022-11-18T09:39:25.818Z,100414.88
2022-11-18T09:42:45.793Z,100416.63
2022-11-18T09:45:53.673Z,100422.16
2022-11-18T09:49:13.689Z,100417.97
2022-11-18T09:52:19.695Z,100429.81
2022-11-18T09:55:23.016Z,100434.94
2022-11-18T09:58:34.805Z,100431.97
2022-11-18T10:01:37.948Z,100437.78
2022-11-18T10:04:40.750Z,100427.75
2022-11-18T10:07:50.622Z,100435.25
2022-11-18T10:11:01.681Z,100439.97
2022-11-18T10:14:19.011Z,100446.81
2022-11-18T10:17:33.658Z,100464.78
2022-11-18T10:20:49.181Z,100460.63
2022-11-18T10:23:54.170Z,100463.31
2022-11-18T10:26:58.396Z,100469.13
2022-11-18T10:30:02.547Z,100473.53
2022-11-18T10:33:19.103Z,100468.78
2022-11-18T10:36:28.699Z,100471.94
2022-11-18T10:39:31.476Z,100466.81
2022-11-18T10:42:38.702Z,100476.72
2022-11-18T10:45:42.912Z,100473.94
2022-11-18T10:48:45.620Z,100472.84
2022-11-18T10:51:50.160Z,100482.66
2022-11-18T10:55:21.910Z,100486.94
2022-11-18T10:58:25.435Z,100488.28
2022-11-18T11:01:30.073Z,100484.00
2022-11-18T11:04:32.831Z,100485.47
2022-11-18T11:07:36.515Z,100481.59
2022-11-18T11:10:39.207Z,100492.84
2022-11-18T11:13:45.483Z,100496.31
2022-11-18T11:17:01.181Z,100497.03
2022-11-18T11:20:11.421Z,100495.41
2022-11-18T11:23:22.125Z,100504.22
2022-11-18T11:30:08.794Z,100511.59
2022-11-18T11:33:23.049Z,100507.59
2022-11-18T11:36:44.916Z,100512.69
2022-11-18T11:40:03.911Z,100525.84
2022-11-18T11:43:20.266Z,100518.16
2022-11-18T11:46:32.303Z,100522.84
2022-11-18T11:49:46.640Z,100531.75
2022-11-18T11:53:01.946Z,100535.72
2022-11-18T11:56:15.144Z,100532.88
2022-11-18T11:59:29.033Z,100528.34
2022-11-18T12:02:48.733Z,100528.06
2022-11-18T12:05:52.754Z,100537.72
2022-11-18T12:09:04.706Z,100544.41
2022-11-18T12:12:27.363Z,100543.66
2022-11-18T12:15:44.974Z,100544.63
2022-11-18T12:18:51.967Z,100540.72
2022-11-18T12:22:03.881Z,100547.66
2022-11-18T12:25:56.517Z,100551.56
2022-11-18T12:29:24.120Z,100560.66
2022-11-18T12:32:30.175Z,100558.13
2022-11-18T12:35:33.885Z,100548.59
2022-11-18T12:38:37.944Z,100558.16
2022-11-18T12:42:11.760Z,100559.09
2022-11-18T12:45:49.232Z,100563.50
2022-11-18T12:48:51.872Z,100558.03
2022-11-18T12:51:55.857Z,100563.63
2022-11-18T12:55:02.168Z,100568.63
2022-11-18T12:58:04.909Z,100566.13
2022-11-18T13:01:11.623Z,100570.44
2022-11-18T13:04:17.694Z,100567.09
2022-11-18T13:07:38.270Z,100561.88
2022-11-18T13:10:53.166Z,100570.56
2022-11-18T13:14:11.237Z,100575.97
2022-11-18T13:17:48.485Z,100579.38
2022-11-18T13:20:58.649Z,100583.75
2022-11-18T13:24:01.107Z,100596.22
2022-11-18T13:27:05.701Z,100589.28
2022-11-18T13:30:13.314Z,100592.97
2022-11-18T13:33:15.975Z,100585.97
2022-11-18T13:36:20.053Z,100600.78
2022-11-18T13:39:25.389Z,100604.38
2022-11-18T13:42:31.555Z,100600.06
2022-11-18T13:45:35.650Z,100609.78
2022-11-18T13:48:46.778Z,100608.88
2022-11-18T13:51:51.521Z,100604.56
2022-11-18T13:54:56.877Z,100613.59
2022-11-18T13:58:04.549Z,100618.50
2022-11-18T14:01:16.168Z,100610.69
2022-11-18T14:04:21.635Z,100622.09
2022-11-18T14:07:28.231Z,100626.38
2022-11-18T14:10:36.720Z,100623.91
2022-11-18T14:13:54.504Z,100632.72
2022-11-18T14:17:06.075Z,100631.00
2022-11-18T14:20:17.388Z,100631.94
2022-11-18T14:23:23.987Z,100638.13
2022-11-18T14:26:31.139Z,100638.25
2022-11-18T14:29:35.128Z,100647.91
2022-11-18T14:32:37.742Z,100662.84
2022-11-18T14:35:41.023Z,100662.97
2022-11-18T14:42:13.724Z,100661.97
2022-11-18T14:45:17.893Z,100664.59
2022-11-18T14:48:25.233Z,100667.28
2022-11-18T14:51:31.050Z,100670.81
2022-11-18T14:54:34.164Z,100676.97
2022-11-18T14:57:36.894Z,100672.56
2022-11-18T15:00:41.314Z,100676.16
2022-11-18T15:03:44.075Z,100672.72
2022-11-18T15:06:46.691Z,100680.56
2022-11-18T15:09:49.476Z,100677.16
2022-11-18T15:12:52.086Z,100691.13
2022-11-18T15:15:56.577Z,100691.25
2022-11-18T15:19:00.760Z,100699.00
2022-11-18T15:22:03.392Z,100705.94
2022-11-18T15:25:06.698Z,100696.31
2022-11-18T15:28:10.795Z,100700.75
2022-11-18T15:31:14.988Z,100715.53
2022-11-18T15:34:20.052Z,100713.84
2022-11-18T15:37:23.188Z,100724.44
2022-11-18T15:40:25.804Z,100730.56
2022-11-18T15:43:28.516Z,100729.78
2022-11-18T15:46:33.583Z,100731.59
2022-11-18T15:49:36.312Z,100731.69
2022-11-18T15:52:39.007Z,100733.41
2022-11-18T15:55:41.768Z,100733.47
2022-11-18T15:58:44.391Z,100738.63
2022-11-18T16:01:49.977Z,100742.16
2022-11-18T16:04:52.606Z,100757.06
2022-11-18T16:07:55.316Z,100750.06
2022-11-18T16:11:15.900Z,100756.28
2022-11-18T16:14:21.063Z,100749.22
2022-11-18T16:17:25.279Z,100755.44
2022-11-18T16:20:28.563Z,100758.94
2022-11-18T16:23:31.185Z,100759.81
2022-11-18T16:26:34.667Z,100766.75
2022-11-18T16:29:37.420Z,100769.44
2022-11-18T16:32:41.406Z,100765.97
2022-11-18T16:35:48.170Z,100780.84
2022-11-18T16:38:50.769Z,100782.56
2022-11-18T16:41:54.973Z,100785.91
2022-11-18T16:44:57.578Z,100782.50
2022-11-18T16:48:01.829Z,100789.47
2022-11-18T16:51:19.958Z,100788.66
2022-11-18T16:54:24.158Z,100795.66
2022-11-18T16:57:26.764Z,100803.47
2022-11-18T17:00:59.892Z,100812.31
2022-11-18T17:03:54.630Z,100814.03
2022-11-18T17:06:59.694Z,100817.53
2022-11-18T17:10:02.369Z,100808.00
2022-11-18T17:13:05.009Z,100808.84
2022-11-18T17:16:09.051Z,100805.41
2022-11-18T17:19:15.999Z,100804.53
2022-11-18T17:22:19.452Z,100796.75
2022-11-18T17:25:22.077Z,100801.09
2022-11-18T17:28:24.716Z,100803.66
2022-11-18T17:31:27.766Z,100802.78
2022-11-18T17:34:31.733Z,100819.47
2022-11-18T17:37:34.404Z,100815.94
2022-11-18T17:40:37.048Z,100826.34
2022-11-18T17:43:39.735Z,100834.19
2022-11-18T17:46:43.033Z,100833.41
2022-11-18T17:49:47.008Z,100839.56
2022-11-18T17:52:49.649Z,100839.47
2022-11-18T17:55:52.255Z,100847.44
2022-11-18T17:58:55.627Z,100849.13
2022-11-18T18:01:59.887Z,100860.50
2022-11-18T18:05:04.183Z,100861.38
2022-11-18T18:08:09.865Z,100865.75
2022-11-18T18:11:16.377Z,100870.00
2022-11-18T18:14:19.293Z,100875.28
2022-11-18T18:17:22.453Z,100878.81
2022-11-18T18:20:27.117Z,100884.06
2022-11-18T18:23:29.741Z,100884.03
2022-11-18T18:26:32.669Z,100884.03
2022-11-18T18:29:35.304Z,100890.16
2022-11-18T18:32:37.923Z,100896.31
2022-11-18T18:35:42.600Z,100894.47
2022-11-18T18:38:45.971Z,100899.72
2022-11-18T18:41:49.088Z,100901.47
2022-11-18T18:45:08.264Z,100919.81
2022-11-18T18:48:10.896Z,100910.19
2022-11-18T18:51:15.230Z,100918.88
2022-11-18T18:54:20.230Z,100908.47
2022-11-18T18:57:23.104Z,100902.34
2022-11-18T19:00:25.772Z,100904.91
2022-11-18T19:03:28.386Z,100905.84
2022-11-18T19:06:53.318Z,100907.56
2022-11-18T19:09:57.192Z,100910.22
2022-11-18T19:12:59.839Z,100915.50
2022-11-18T19:16:05.922Z,100922.47
2022-11-18T19:19:09.972Z,100912.94
2022-11-18T19:22:15.745Z,100920.78
2022-11-18T19:25:18.776Z,100924.22
2022-11-18T19:28:21.401Z,100916.34
2022-11-18T19:31:24.348Z,100926.06
2022-11-18T19:34:26.989Z,100931.28
2022-11-18T19:37:31.405Z,100930.41
2022-11-18T19:40:34.028Z,100940.03
2022-11-18T19:43:36.825Z,100937.38
2022-11-18T19:46:39.435Z,100947.03
2022-11-18T19:49:42.083Z,100940.00
2022-11-18T19:52:48.433Z,100936.50
2022-11-18T19:55:54.975Z,100930.44
2022-11-18T19:58:58.951Z,100933.03
2022-11-18T20:02:01.986Z,100954.88
2022-11-18T20:05:22.369Z,100947.91
2022-11-18T20:08:26.433Z,100954.88
2022-11-18T20:11:29.095Z,100946.19
2022-11-18T20:14:31.688Z,100957.50
2022-11-18T20:17:34.322Z,100954.91
2022-11-18T20:20:38.175Z,100964.47
2022-11-18T20:23:42.381Z,100968.06
2022-11-18T20:26:45.537Z,100968.91
2022-11-18T20:29:48.145Z,100966.25
2022-11-18T20:32:51.794Z,100975.06
2022-11-18T20:35:54.696Z,100982.88
2022-11-18T20:39:00.344Z,100991.63
2022-11-18T20:42:20.597Z,100982.91
2022-11-18T20:45:23.904Z,100991.59
2022-11-18T20:48:26.537Z,101002.91
2022-11-18T20:51:29.978Z,101000.31
2022-11-18T20:54:34.560Z,101000.31
2022-11-18T20:57:37.239Z,100999.50
2022-11-18T21:00:40.094Z,101002.97
2022-11-18T21:03:43.979Z,101018.66
2022-11-18T21:06:47.340Z,101024.81
2022-11-18T21:09:51.297Z,101025.63
2022-11-18T21:13:11.559Z,101019.53
2022-11-18T21:16:14.161Z,101026.53
2022-11-18T21:19:17.130Z,101027.41
2022-11-18T21:22:19.927Z,101035.25
2022-11-18T21:25:23.895Z,101037.00
2022-11-18T21:28:28.693Z,101045.72
2022-11-18T21:31:32.521Z,101037.91
2022-11-18T21:34:35.424Z,101046.59
2022-11-18T21:37:38.135Z,101041.38
2022-11-18T21:40:42.245Z,101047.44
2022-11-18T21:44:04.379Z,101053.59
2022-11-18T21:47:07.883Z,101045.72
2022-11-18T21:50:11.247Z,101046.59
2022-11-18T21:53:16.083Z,101046.59
2022-11-18T21:56:22.009Z,101056.19
2022-11-18T21:59:24.850Z,101057.06
2022-11-18T22:02:27.486Z,101062.28
2022-11-18T22:05:30.106Z,101060.56
2022-11-18T22:08:33.004Z,101065.78
2022-11-18T22:11:36.943Z,101061.44
2022-11-18T22:14:39.544Z,101058.81
2022-11-18T22:17:42.232Z,101071.03
2022-11-18T22:20:44.855Z,101079.72
2022-11-18T22:23:48.380Z,101077.13
2022-11-18T22:26:52.379Z,101081.47
2022-11-18T22:29:54.973Z,101083.22
2022-11-18T22:32:57.602Z,101080.59
2022-11-18T22:36:01.890Z,101084.09
2022-11-18T22:39:04.503Z,101084.06
2022-11-18T22:42:27.016Z,101087.56
2022-11-18T22:45:29.689Z,101091.06
2022-11-18T22:48:32.409Z,101088.44
2022-11-18T22:51:35.210Z,101095.41
2022-11-18T22:54:39.661Z,101088.44
2022-11-18T22:57:45.171Z,101095.38
2022-11-18T23:00:47.846Z,101100.59
2022-11-18T23:03:52.880Z,101099.75
2022-11-18T23:06:55.518Z,101097.09
2022-11-18T23:09:58.170Z,101106.72
2022-11-18T23:13:21.669Z,101110.16
2022-11-18T23:16:24.996Z,101100.56
2022-11-18T23:19:27.627Z,101108.44
2022-11-18T23:22:30.250Z,101108.41
2022-11-18T23:25:32.971Z,101113.59
2022-11-18T23:28:37.519Z,101121.47
2022-11-18T23:31:42.772Z,101122.31
2022-11-18T23:34:45.411Z,101129.31
2022-11-18T23:37:48.824Z,101125.81
2022-11-18T23:40:55.297Z,101140.59
2022-11-18T23:43:59.257Z,101138.84
2022-11-18T23:47:01.904Z,101135.38
2022-11-18T23:50:04.838Z,101144.06
2022-11-18T23:53:07.446Z,101143.13
2022-11-18T23:56:11.876Z,101137.09
2022-11-18T23:59:15.884Z,101139.69
